Time;durP1;ratioP1;P1;durP2;ratioP2;P2;SDS_P1;SDS_P2;PMS_P1;PMS_P2;Temp;Humidity;BMP_temperature;BMP_pressure;BME280_temperature;BME280_humidity;BME280_pressure;Samples;Min_cycle;Max_cycle;Signal;HPM_P1;HPM_P2
2022/05/09 00:00:20;;;;;;;17.42;6.00;;;7.20;99.90;;;;;;5079220;28;20090;-51
2022/05/09 00:02:49;;;;;;;17.00;5.90;;;7.20;99.90;;;;;;5081593;28;20058;-59
2022/05/09 00:05:19;;;;;;;19.13;5.75;;;7.20;99.90;;;;;;5080063;28;20080;-58
2022/05/09 00:07:45;;;;;;;18.98;6.32;;;7.10;99.90;;;;;;5080034;28;20099;-59
2022/05/09 00:10:14;;;;;;;17.23;5.65;;;7.10;99.90;;;;;;5084443;28;20826;-60
2022/05/09 00:12:41;;;;;;;19.98;6.57;;;7.10;99.90;;;;;;5082016;28;20523;-59
2022/05/09 00:15:08;;;;;;;15.13;6.53;;;7.10;99.90;;;;;;5078258;28;20144;-59
2022/05/09 00:17:35;;;;;;;14.98;5.32;;;7.10;99.90;;;;;;5083665;28;20105;-52
2022/05/09 00:20:01;;;;;;;17.30;5.53;;;7.00;99.90;;;;;;5084745;28;20044;-52
2022/05/09 00:22:27;;;;;;;21.85;6.63;;;7.00;99.90;;;;;;5084504;28;20101;-52
2022/05/09 00:24:53;;;;;;;13.70;5.80;;;7.00;99.90;;;;;;5046704;28;20052;-59
2022/05/09 00:27:20;;;;;;;16.80;5.97;;;7.00;99.90;;;;;;5069136;28;20092;-53
2022/05/09 00:29:46;;;;;;;26.10;6.70;;;7.00;99.90;;;;;;5086558;27;20145;-59
2022/05/09 00:32:12;;;;;;;16.20;6.40;;;6.90;99.90;;;;;;5073578;28;20055;-52
2022/05/09 00:34:38;;;;;;;19.83;6.10;;;6.90;99.90;;;;;;5083485;28;20056;-59
2022/05/09 00:37:05;;;;;;;15.88;6.00;;;6.90;99.90;;;;;;5062258;28;20512;-59
2022/05/09 00:39:35;;;;;;;19.85;6.93;;;6.90;99.90;;;;;;5079413;28;20101;-59
2022/05/09 00:42:13;;;;;;;18.45;5.75;;;6.90;99.90;;;;;;5074410;28;20758;-52
2022/05/09 00:44:40;;;;;;;16.90;6.22;;;6.80;99.90;;;;;;5082602;28;20056;-59
2022/05/09 00:47:06;;;;;;;19.45;6.18;;;6.80;99.90;;;;;;5082504;28;20385;-52
2022/05/09 00:49:34;;;;;;;16.60;6.40;;;6.70;99.90;;;;;;5081365;28;20119;-49
2022/05/09 00:52:10;;;;;;;19.92;6.05;;;6.70;99.90;;;;;;5075343;28;20053;-59
2022/05/09 00:54:48;;;;;;;17.95;5.95;;;6.70;99.90;;;;;;5082282;28;20059;-59
2022/05/09 00:57:20;;;;;;;17.75;6.63;;;6.70;99.90;;;;;;5080432;28;20089;-58
2022/05/09 00:59:49;;;;;;;17.25;6.03;;;6.70;99.90;;;;;;5070911;28;20056;-53
2022/05/09 01:02:19;;;;;;;15.93;5.72;;;6.70;99.90;;;;;;5078931;28;20044;-52
2022/05/09 01:04:57;;;;;;;21.23;6.35;;;6.70;99.90;;;;;;5094232;28;21139;-52
2022/05/09 01:07:24;;;;;;;17.52;6.70;;;6.70;99.90;;;;;;5077245;28;20101;-59
2022/05/09 01:09:51;;;;;;;12.57;5.80;;;6.60;99.90;;;;;;5076033;28;20805;-50
2022/05/09 01:12:22;;;;;;;15.73;6.07;;;6.50;99.90;;;;;;5077020;28;20129;-52
2022/05/09 01:14:49;;;;;;;15.02;5.78;;;6.40;99.90;;;;;;5083112;28;20060;-53
2022/05/09 01:17:17;;;;;;;21.45;6.30;;;6.40;99.90;;;;;;5081271;28;20488;-59
2022/05/09 01:19:44;;;;;;;16.05;6.03;;;6.40;99.90;;;;;;5069455;28;20479;-52
2022/05/09 01:22:24;;;;;;;16.90;6.65;;;6.30;99.90;;;;;;5057732;28;20659;-52
2022/05/09 01:24:52;;;;;;;17.75;5.38;;;6.40;99.90;;;;;;5083344;28;20133;-59
2022/05/09 01:27:18;;;;;;;20.90;6.80;;;6.40;99.90;;;;;;5083090;28;20048;-58
2022/05/09 01:30:10;;;;;;;21.00;6.68;;;6.30;99.90;;;;;;5078688;28;20053;-51
2022/05/09 01:32:48;;;;;;;19.38;5.75;;;6.30;99.90;;;;;;5063733;28;20044;-58
2022/05/09 01:35:31;;;;;;;21.98;6.68;;;6.30;99.90;;;;;;5080174;28;20088;-58
2022/05/09 01:38:31;;;;;;;18.73;6.93;;;6.30;99.90;;;;;;5082854;28;20464;-51
2022/05/09 01:40:58;;;;;;;19.70;6.25;;;6.30;99.90;;;;;;5074766;28;20036;-58
2022/05/09 01:43:38;;;;;;;20.80;6.60;;;6.30;99.90;;;;;;5082090;28;20172;-59
2022/05/09 01:46:06;;;;;;;12.65;5.88;;;6.20;99.90;;;;;;5082341;28;20135;-59
2022/05/09 01:51:18;;;;;;;15.63;6.32;;;6.10;99.90;;;;;;5077720;28;20113;-59
2022/05/09 01:53:52;;;;;;;19.02;7.50;;;6.10;99.90;;;;;;5083809;28;20059;-60
2022/05/09 01:56:20;;;;;;;17.77;6.32;;;6.10;99.90;;;;;;5083267;28;20056;-60
2022/05/09 01:58:46;;;;;;;18.05;6.90;;;6.10;99.90;;;;;;5094162;28;20048;-60
2022/05/09 02:01:13;;;;;;;12.38;5.90;;;6.10;99.90;;;;;;5076882;28;20593;-59
2022/05/09 02:03:39;;;;;;;20.20;6.97;;;6.00;99.90;;;;;;5072363;28;20059;-59
2022/05/09 02:06:09;;;;;;;16.05;7.22;;;6.00;99.90;;;;;;5083165;28;20064;-59
2022/05/09 02:08:36;;;;;;;18.83;7.88;;;6.00;99.90;;;;;;5070913;28;20052;-59
2022/05/09 02:11:03;;;;;;;26.30;7.72;;;6.00;99.90;;;;;;5080229;28;20045;-60
2022/05/09 02:13:29;;;;;;;17.05;6.68;;;6.00;99.90;;;;;;5088705;28;20386;-59
2022/05/09 02:15:55;;;;;;;19.35;7.18;;;5.90;99.90;;;;;;5083979;28;20055;-60
2022/05/09 02:18:21;;;;;;;18.70;7.35;;;5.90;99.90;;;;;;5051493;28;20055;-59
2022/05/09 02:20:48;;;;;;;21.73;7.38;;;5.90;99.90;;;;;;5080305;28;20133;-59
2022/05/09 02:23:14;;;;;;;19.23;7.38;;;5.90;99.90;;;;;;5065562;28;20041;-60
2022/05/09 02:25:42;;;;;;;20.98;7.45;;;5.80;99.90;;;;;;5084797;28;20055;-59
2022/05/09 02:28:09;;;;;;;17.02;6.88;;;5.80;99.90;;;;;;5082263;28;20566;-59
2022/05/09 02:30:38;;;;;;;13.50;5.90;;;5.80;99.90;;;;;;5076425;28;20060;-60
2022/05/09 02:33:06;;;;;;;14.25;6.38;;;5.80;99.90;;;;;;5072085;28;20800;-60
2022/05/09 02:35:35;;;;;;;17.60;8.07;;;5.80;99.90;;;;;;5080638;28;20047;-60
2022/05/09 02:38:03;;;;;;;20.42;7.88;;;5.80;99.90;;;;;;5049325;28;20048;-59
2022/05/09 02:40:29;;;;;;;17.95;6.75;;;5.70;99.90;;;;;;5033376;28;20048;-60
2022/05/09 02:42:57;;;;;;;16.20;6.65;;;5.70;99.90;;;;;;5068122;28;20661;-49
2022/05/09 02:45:24;;;;;;;22.35;7.47;;;5.70;99.90;;;;;;5071907;28;20044;-51
2022/05/09 02:47:50;;;;;;;16.85;7.95;;;5.70;99.90;;;;;;5087767;28;20052;-49
2022/05/09 02:50:17;;;;;;;18.00;8.25;;;5.70;99.90;;;;;;5050501;28;20151;-50
2022/05/09 02:52:43;;;;;;;15.18;7.55;;;5.60;99.90;;;;;;5081814;28;20078;-51
2022/05/09 02:55:12;;;;;;;15.93;7.00;;;5.60;99.90;;;;;;5078899;28;20047;-53
2022/05/09 02:57:39;;;;;;;22.65;8.82;;;5.60;99.90;;;;;;5089732;28;20052;-53
2022/05/09 03:00:09;;;;;;;16.52;7.57;;;5.60;99.90;;;;;;5080994;28;20052;-53
2022/05/09 03:02:35;;;;;;;18.90;7.05;;;5.60;99.90;;;;;;5079011;28;20143;-51
2022/05/09 03:05:02;;;;;;;16.92;8.20;;;5.50;99.90;;;;;;5076523;28;20551;-49
2022/05/09 03:07:28;;;;;;;18.45;8.35;;;5.50;99.90;;;;;;5082901;28;20055;-49
2022/05/09 03:09:56;;;;;;;26.80;8.27;;;5.50;99.90;;;;;;5080482;28;20820;-53
2022/05/09 03:12:22;;;;;;;25.52;8.93;;;5.50;99.90;;;;;;5057734;28;20460;-50
2022/05/09 03:14:49;;;;;;;17.08;8.00;;;5.50;99.90;;;;;;5090824;28;20052;-48
2022/05/09 03:17:16;;;;;;;20.85;7.50;;;5.50;99.90;;;;;;5070807;28;20048;-50
2022/05/09 03:19:43;;;;;;;17.70;8.02;;;5.50;99.90;;;;;;5062706;28;20044;-52
2022/05/09 03:22:09;;;;;;;19.23;8.10;;;5.50;99.90;;;;;;5079037;28;20115;-51
2022/05/09 03:24:36;;;;;;;20.70;8.63;;;5.50;99.90;;;;;;5082042;28;20052;-51
2022/05/09 03:27:03;;;;;;;14.70;6.78;;;5.50;99.90;;;;;;5090400;28;20135;-51
2022/05/09 03:29:31;;;;;;;23.38;7.57;;;5.50;99.90;;;;;;5071026;28;20562;-53
2022/05/09 03:32:00;;;;;;;16.02;7.00;;;5.50;99.90;;;;;;5067740;28;20515;-59
2022/05/09 03:34:26;;;;;;;18.60;8.20;;;5.40;99.90;;;;;;5072953;28;20551;-59
2022/05/09 03:36:53;;;;;;;20.92;8.38;;;5.40;99.90;;;;;;5088092;28;20117;-58
2022/05/09 03:39:19;;;;;;;19.13;8.23;;;5.50;99.90;;;;;;5088028;28;20416;-59
2022/05/09 03:41:47;;;;;;;17.05;8.90;;;5.50;99.90;;;;;;5083739;28;20079;-58
2022/05/09 03:44:14;;;;;;;19.35;7.97;;;5.50;99.90;;;;;;5077826;28;20432;-53
2022/05/09 03:46:41;;;;;;;20.65;8.55;;;5.50;99.90;;;;;;5067504;28;20709;-58
2022/05/09 03:49:08;;;;;;;24.60;8.57;;;5.50;99.90;;;;;;5082177;28;20450;-59
2022/05/09 03:51:35;;;;;;;17.08;7.93;;;5.40;99.90;;;;;;5076242;28;20044;-59
2022/05/09 03:54:01;;;;;;;21.02;8.57;;;5.40;99.90;;;;;;5079492;28;20054;-59
2022/05/09 03:56:27;;;;;;;20.08;8.05;;;5.40;99.90;;;;;;5094194;28;20682;-59
2022/05/09 03:58:53;;;;;;;20.05;9.20;;;5.40;99.90;;;;;;5084557;28;21900;-59
2022/05/09 04:01:19;;;;;;;14.95;7.57;;;5.40;99.90;;;;;;5089729;28;20076;-59
2022/05/09 04:03:46;;;;;;;16.25;7.10;;;5.40;99.90;;;;;;5082192;28;20048;-58
2022/05/09 04:06:13;;;;;;;17.75;7.90;;;5.30;99.90;;;;;;5081307;28;20713;-59
2022/05/09 04:08:39;;;;;;;19.00;8.00;;;5.30;99.90;;;;;;5082240;28;20041;-52
2022/05/09 04:11:05;;;;;;;18.35;7.22;;;5.30;99.90;;;;;;5076378;28;20446;-49
2022/05/09 04:13:31;;;;;;;15.43;8.18;;;5.30;99.90;;;;;;5068874;28;20143;-51
2022/05/09 04:18:43;;;;;;;15.80;7.68;;;5.30;99.90;;;;;;5075242;28;20146;-50
2022/05/09 04:21:12;;;;;;;14.50;7.68;;;5.30;99.90;;;;;;5050773;28;20129;-52
2022/05/09 04:23:38;;;;;;;19.67;7.78;;;5.30;99.90;;;;;;5061811;28;20162;-59
2022/05/09 04:26:05;;;;;;;19.25;8.73;;;5.40;99.90;;;;;;5070495;28;20082;-58
2022/05/09 04:28:31;;;;;;;18.77;7.93;;;5.40;99.90;;;;;;5094757;28;20408;-58
2022/05/09 04:30:59;;;;;;;15.25;9.02;;;5.40;99.90;;;;;;5065495;28;20047;-59
2022/05/09 04:33:25;;;;;;;15.07;8.00;;;5.40;99.90;;;;;;5071800;28;20052;-59
2022/05/09 04:35:52;;;;;;;15.63;7.93;;;5.50;99.90;;;;;;5071571;28;20766;-59
2022/05/09 04:38:23;;;;;;;18.42;8.90;;;5.50;99.90;;;;;;5064994;28;20506;-59
2022/05/09 04:40:54;;;;;;;18.52;9.10;;;5.50;99.90;;;;;;5083773;28;20126;-59
2022/05/09 04:43:23;;;;;;;21.02;8.13;;;5.60;99.90;;;;;;5068876;28;20048;-59
2022/05/09 04:45:50;;;;;;;17.38;9.32;;;5.60;99.90;;;;;;5075575;28;20135;-59
2022/05/09 04:48:17;;;;;;;19.23;8.48;;;5.70;99.90;;;;;;5088880;28;20584;-59
2022/05/09 04:50:44;;;;;;;20.40;8.93;;;5.80;99.90;;;;;;5084205;28;20502;-59
2022/05/09 04:53:11;;;;;;;18.27;8.90;;;5.80;99.90;;;;;;5082155;28;20052;-53
2022/05/09 04:55:40;;;;;;;23.20;9.48;;;5.80;99.90;;;;;;5083909;28;20638;-53
2022/05/09 04:58:06;;;;;;;15.63;8.48;;;5.90;99.90;;;;;;5078953;28;20040;-53
2022/05/09 05:00:32;;;;;;;21.42;9.50;;;6.00;99.90;;;;;;5083650;28;20499;-53
2022/05/09 05:02:59;;;;;;;18.80;8.57;;;6.00;99.90;;;;;;5083524;28;20043;-53
2022/05/09 05:05:27;;;;;;;19.27;8.50;;;6.30;99.90;;;;;;5057561;28;20064;-52
2022/05/09 05:07:53;;;;;;;15.93;7.97;;;6.50;99.90;;;;;;5067221;28;20416;-53
2022/05/09 05:10:20;;;;;;;17.13;7.90;;;6.90;99.90;;;;;;5042375;28;20056;-53
2022/05/09 05:12:47;;;;;;;15.20;7.88;;;7.10;99.90;;;;;;5078588;28;20090;-59
2022/05/09 05:15:13;;;;;;;21.95;9.00;;;7.50;99.90;;;;;;5089217;28;20083;-59
2022/05/09 05:17:40;;;;;;;14.02;7.35;;;7.80;99.90;;;;;;5090441;28;20048;-59
2022/05/09 05:20:09;;;;;;;18.15;7.70;;;7.90;99.90;;;;;;5089513;28;20447;-59
2022/05/09 05:22:41;;;;;;;17.10;7.55;;;8.20;99.90;;;;;;5085887;28;20055;-59
2022/05/09 05:25:09;;;;;;;17.55;7.47;;;8.30;99.90;;;;;;5066684;28;20514;-59
2022/05/09 05:27:35;;;;;;;14.57;7.70;;;8.50;99.90;;;;;;5073852;28;20460;-59
2022/05/09 05:30:01;;;;;;;19.55;8.38;;;8.60;99.90;;;;;;5074725;28;20052;-58
2022/05/09 05:32:31;;;;;;;24.15;7.63;;;8.80;99.90;;;;;;5071364;28;20989;-58
2022/05/09 05:34:58;;;;;;;18.67;7.35;;;9.00;99.90;;;;;;5070919;28;20415;-60
2022/05/09 05:37:24;;;;;;;15.48;7.43;;;9.00;99.90;;;;;;5083214;28;20052;-59
2022/05/09 05:39:50;;;;;;;14.63;7.28;;;9.20;99.90;;;;;;5088494;28;20048;-53
2022/05/09 05:42:17;;;;;;;19.98;8.15;;;9.10;99.90;;;;;;5079769;28;20816;-53
2022/05/09 05:44:48;;;;;;;20.90;7.80;;;9.30;99.90;;;;;;5081088;28;20098;-52
2022/05/09 05:47:16;;;;;;;19.13;8.70;;;9.40;99.90;;;;;;5072008;28;20534;-59
2022/05/09 05:49:43;;;;;;;18.92;8.75;;;9.60;99.90;;;;;;5068128;28;20048;-52
2022/05/09 05:52:11;;;;;;;15.32;7.35;;;9.70;99.90;;;;;;5083648;28;20557;-52
2022/05/09 05:54:40;;;;;;;19.95;10.45;;;9.90;99.90;;;;;;5047744;28;20083;-54
2022/05/09 05:57:25;;;;;;;17.25;7.35;;;10.10;99.90;;;;;;5066389;28;20049;-59
2022/05/09 05:59:53;;;;;;;14.63;6.63;;;10.20;99.90;;;;;;5078243;28;20075;-59
2022/05/09 06:02:20;;;;;;;15.30;6.88;;;10.40;99.90;;;;;;5074827;28;20135;-54
2022/05/09 06:04:47;;;;;;;14.57;6.40;;;10.50;99.90;;;;;;5065885;28;20800;-59
2022/05/09 06:07:13;;;;;;;13.23;6.18;;;10.70;99.90;;;;;;5067504;28;20577;-58
2022/05/09 06:09:41;;;;;;;16.17;6.47;;;10.70;99.90;;;;;;5081129;28;20779;-56
2022/05/09 06:12:08;;;;;;;18.33;7.72;;;10.80;99.90;;;;;;5075239;28;20050;-59
2022/05/09 06:14:36;;;;;;;16.52;6.60;;;11.00;99.90;;;;;;5065960;28;20285;-53
2022/05/09 06:17:03;;;;;;;22.83;11.18;;;11.10;99.90;;;;;;5071972;28;20044;-54
2022/05/09 06:19:30;;;;;;;13.57;6.78;;;11.20;99.90;;;;;;5081098;28;20499;-59
2022/05/09 06:21:58;;;;;;;17.23;5.82;;;11.40;99.90;;;;;;5077350;28;20052;-60
2022/05/09 06:24:24;;;;;;;18.13;6.32;;;11.50;99.90;;;;;;5077059;28;20047;-60
2022/05/09 06:26:50;;;;;;;17.05;6.53;;;11.70;99.90;;;;;;5082584;28;20210;-59
2022/05/09 06:29:17;;;;;;;16.13;6.43;;;11.90;99.90;;;;;;5087090;28;20059;-59
2022/05/09 06:31:43;;;;;;;13.60;5.90;;;12.10;99.90;;;;;;5084768;28;20048;-54
2022/05/09 06:34:11;;;;;;;14.15;6.03;;;12.20;99.90;;;;;;5075719;28;20876;-47
2022/05/09 06:36:38;;;;;;;17.00;5.63;;;12.40;99.90;;;;;;5077897;28;21638;-54
2022/05/09 06:39:06;;;;;;;15.98;6.32;;;12.50;99.90;;;;;;5080927;28;20035;-54
2022/05/09 06:41:32;;;;;;;15.38;6.45;;;12.70;99.90;;;;;;5084141;28;20722;-54
2022/05/09 06:43:59;;;;;;;15.88;6.20;;;12.80;99.90;;;;;;5099950;28;20040;-52
2022/05/09 06:46:26;;;;;;;13.20;5.85;;;13.00;99.90;;;;;;5071405;28;20055;-59
2022/05/09 06:48:52;;;;;;;12.45;6.20;;;13.10;99.90;;;;;;5063686;28;20144;-60
2022/05/09 06:51:20;;;;;;;15.30;6.32;;;13.20;99.90;;;;;;5083685;28;20211;-60
2022/05/09 06:53:50;;;;;;;17.98;5.93;;;13.40;99.90;;;;;;5063371;28;20063;-60
2022/05/09 06:56:16;;;;;;;12.05;5.97;;;13.60;99.90;;;;;;5069703;28;20870;-60
2022/05/09 06:58:42;;;;;;;14.90;6.20;;;13.70;99.90;;;;;;5084477;28;20088;-59
2022/05/09 07:01:16;;;;;;;15.18;5.50;;;13.90;99.90;;;;;;5086328;28;20040;-59
2022/05/09 07:03:43;;;;;;;18.02;9.60;;;14.00;99.90;;;;;;5082520;28;20047;-60
2022/05/09 07:06:10;;;;;;;15.75;6.63;;;14.30;99.90;;;;;;5081349;28;20073;-52
2022/05/09 07:08:37;;;;;;;14.23;5.80;;;14.70;99.90;;;;;;5082172;28;20105;-51
2022/05/09 07:11:05;;;;;;;14.95;5.97;;;14.90;99.90;;;;;;5083946;28;20074;-53
2022/05/09 07:13:33;;;;;;;11.23;5.47;;;15.20;99.90;;;;;;5083120;28;20376;-51
2022/05/09 07:15:59;;;;;;;13.68;5.70;;;15.50;99.90;;;;;;5081263;28;20047;-54
2022/05/09 07:18:28;;;;;;;11.43;5.60;;;15.90;99.90;;;;;;5062295;28;20147;-61
2022/05/09 07:20:57;;;;;;;11.38;5.55;;;15.90;99.90;;;;;;5061758;28;20055;-54
2022/05/09 07:23:24;;;;;;;12.85;6.18;;;16.30;99.90;;;;;;5063164;28;20523;-54
2022/05/09 07:25:51;;;;;;;13.85;5.82;;;16.60;99.90;;;;;;5081541;28;20052;-52
2022/05/09 07:28:21;;;;;;;12.00;4.90;;;16.70;99.90;;;;;;5079159;28;20044;-55
2022/05/09 07:30:48;;;;;;;14.00;5.32;;;16.90;99.90;;;;;;5098831;28;20048;-53
2022/05/09 07:33:16;;;;;;;10.93;4.50;;;17.10;99.90;;;;;;5070624;28;20048;-54
2022/05/09 07:35:44;;;;;;;12.32;4.93;;;17.20;99.90;;;;;;5097415;28;20052;-53
2022/05/09 07:38:12;;;;;;;11.57;5.07;;;17.30;99.90;;;;;;5080654;28;20153;-54
2022/05/09 07:40:40;;;;;;;12.43;4.78;;;17.90;99.90;;;;;;5081181;28;20066;-52
2022/05/09 07:43:14;;;;;;;11.82;5.30;;;17.90;99.90;;;;;;5076902;28;20048;-53
2022/05/09 07:45:42;;;;;;;13.82;5.50;;;17.90;99.90;;;;;;5082191;28;20051;-55
2022/05/09 07:48:09;;;;;;;11.52;5.63;;;18.20;99.90;;;;;;5082928;28;20108;-53
2022/05/09 07:50:36;;;;;;;11.05;4.90;;;18.70;99.90;;;;;;5081161;28;20060;-54
2022/05/09 07:53:12;;;;;;;13.98;5.18;;;19.00;99.90;;;;;;5080086;28;20047;-56
2022/05/09 07:55:39;;;;;;;15.07;5.82;;;18.80;99.90;;;;;;5081835;28;20060;-56
2022/05/09 07:58:09;;;;;;;13.68;4.78;;;19.20;99.90;;;;;;5064542;28;20051;-56
2022/05/09 08:00:37;;;;;;;14.25;5.45;;;19.50;99.90;;;;;;5098312;28;20794;-56
2022/05/09 08:03:04;;;;;;;10.02;5.28;;;19.40;99.90;;;;;;5082580;28;20128;-56
2022/05/09 08:05:32;;;;;;;9.50;4.93;;;19.70;99.90;;;;;;5065700;28;20494;-56
2022/05/09 08:07:58;;;;;;;11.20;4.95;;;19.50;99.90;;;;;;5061098;28;20040;-56
2022/05/09 08:10:25;;;;;;;13.45;4.95;;;19.90;99.90;;;;;;5078189;28;20056;-57
2022/05/09 08:12:52;;;;;;;14.65;5.00;;;19.70;99.90;;;;;;5077963;28;20087;-54
2022/05/09 08:15:20;;;;;;;13.13;4.53;;;20.00;99.90;;;;;;5055854;28;20651;-53
2022/05/09 08:17:49;;;;;;;11.95;5.07;;;20.10;99.90;;;;;;5062172;28;20043;-53
2022/05/09 08:20:18;;;;;;;12.38;4.03;;;20.20;99.90;;;;;;5078290;28;20052;-53
2022/05/09 08:22:45;;;;;;;12.35;4.50;;;20.80;99.90;;;;;;5044395;28;20216;-56
2022/05/09 08:25:14;;;;;;;10.38;4.55;;;21.20;99.90;;;;;;5090952;28;20040;-56
2022/05/09 08:27:41;;;;;;;12.13;4.68;;;21.40;98.40;;;;;;5089586;28;20067;-56
2022/05/09 08:30:09;;;;;;;13.30;4.57;;;21.50;98.10;;;;;;5079059;28;20043;-62
2022/05/09 08:32:38;;;;;;;11.05;4.20;;;21.30;96.30;;;;;;5084264;28;20550;-61
2022/05/09 08:35:05;;;;;;;15.93;4.88;;;21.60;92.40;;;;;;5085476;28;20519;-62
2022/05/09 08:37:32;;;;;;;13.02;4.00;;;21.80;94.10;;;;;;5084984;28;20196;-63
2022/05/09 08:39:58;;;;;;;9.88;3.92;;;21.90;91.40;;;;;;5102313;28;20044;-64
2022/05/09 08:42:45;;;;;;;11.20;4.05;;;22.00;92.00;;;;;;5086356;28;20052;-56
2022/05/09 08:45:17;;;;;;;11.75;3.75;;;22.30;80.30;;;;;;5085928;28;20059;-55
2022/05/09 08:47:53;;;;;;;8.60;3.55;;;22.60;79.00;;;;;;5085114;28;20052;-57
2022/05/09 08:50:46;;;;;;;10.13;4.03;;;23.00;62.80;;;;;;5065390;28;20068;-54
2022/05/09 08:53:22;;;;;;;10.80;3.50;;;22.70;60.90;;;;;;5083823;28;20048;-54
2022/05/09 08:55:51;;;;;;;16.00;7.65;;;22.80;57.80;;;;;;5066334;28;20496;-57
2022/05/09 08:58:41;;;;;;;11.15;4.40;;;22.60;57.80;;;;;;5081845;28;20154;-57
2022/05/09 09:01:13;;;;;;;10.80;3.65;;;22.90;53.10;;;;;;5084471;28;20059;-57
2022/05/09 09:03:44;;;;;;;9.95;4.00;;;23.20;54.80;;;;;;5066653;28;20487;-56
2022/05/09 09:06:38;;;;;;;11.75;3.30;;;23.50;52.20;;;;;;5085562;28;20055;-64
2022/05/09 09:09:22;;;;;;;9.73;3.65;;;23.50;50.90;;;;;;5065808;28;20052;-65
2022/05/09 09:12:09;;;;;;;15.30;4.40;;;23.70;51.00;;;;;;5066742;28;20737;-65
2022/05/09 09:14:54;;;;;;;6.05;2.63;;;23.70;50.10;;;;;;5081472;28;20131;-66
2022/05/09 09:17:30;;;;;;;10.90;3.20;;;24.30;43.70;;;;;;5065953;28;20392;-65
2022/05/09 09:20:08;;;;;;;8.10;3.03;;;24.20;45.40;;;;;;5081788;28;20518;-65
2022/05/09 09:22:58;;;;;;;9.13;3.80;;;24.00;44.40;;;;;;5066901;28;20488;-65
2022/05/09 09:25:43;;;;;;;9.27;3.33;;;24.10;43.80;;;;;;5088507;28;20076;-65
2022/05/09 09:28:14;;;;;;;12.23;3.50;;;24.00;45.00;;;;;;5085215;28;20078;-64
2022/05/09 09:30:42;;;;;;;12.68;4.07;;;24.10;45.00;;;;;;5088495;28;20051;-64
2022/05/09 09:33:13;;;;;;;9.50;3.42;;;24.00;43.90;;;;;;5091940;28;20086;-64
2022/05/09 09:35:55;;;;;;;7.78;3.03;;;24.50;44.00;;;;;;5091628;28;20113;-65
2022/05/09 09:38:37;;;;;;;9.43;4.18;;;24.80;43.70;;;;;;5073601;28;20048;-64
2022/05/09 09:41:29;;;;;;;8.48;3.75;;;25.00;42.30;;;;;;5087680;28;20052;-65
2022/05/09 09:44:07;;;;;;;10.88;4.63;;;24.90;42.10;;;;;;5083918;28;20825;-64
2022/05/09 09:46:34;;;;;;;13.38;3.50;;;25.30;41.20;;;;;;5084518;28;20465;-63
2022/05/09 09:49:07;;;;;;;12.40;4.10;;;24.90;41.20;;;;;;5085263;28;20781;-63
2022/05/09 09:51:47;;;;;;;8.95;3.58;;;24.80;42.00;;;;;;5069433;28;20435;-65
2022/05/09 09:54:19;;;;;;;9.68;3.95;;;25.60;42.20;;;;;;5081306;28;20118;-67
2022/05/09 09:56:45;;;;;;;10.27;3.42;;;25.50;41.00;;;;;;5084694;28;20048;-64
2022/05/09 09:59:11;;;;;;;21.27;18.95;;;25.90;41.80;;;;;;5083738;28;20117;-64
2022/05/09 10:01:43;;;;;;;8.65;4.70;;;26.10;39.90;;;;;;5080448;28;20633;-62
2022/05/09 10:04:31;;;;;;;12.98;6.30;;;25.70;39.80;;;;;;5086614;28;20505;-61
2022/05/09 10:07:14;;;;;;;11.32;2.97;;;25.80;40.50;;;;;;5089090;28;20400;-61
2022/05/09 10:09:43;;;;;;;11.70;3.22;;;26.10;39.10;;;;;;5082905;28;20048;-61
2022/05/09 10:12:25;;;;;;;13.20;5.25;;;26.30;39.10;;;;;;5091661;28;20654;-54
2022/05/09 10:14:53;;;;;;;9.55;3.83;;;26.00;38.60;;;;;;5083864;28;20044;-53
2022/05/09 10:17:25;;;;;;;11.50;4.63;;;26.30;40.50;;;;;;5083673;28;20056;-55
2022/05/09 10:19:53;;;;;;;6.18;2.63;;;26.40;38.20;;;;;;5083418;28;20620;-53
2022/05/09 10:25:28;;;;;;;9.23;2.53;;;27.20;37.70;;;;;;5096369;28;20553;-53
2022/05/09 10:28:12;;;;;;;8.95;2.35;;;26.90;37.10;;;;;;5084214;28;20620;-54
2022/05/09 10:30:42;;;;;;;9.65;3.40;;;27.20;36.70;;;;;;5082076;28;20056;-53
2022/05/09 10:33:25;;;;;;;9.30;2.70;;;27.10;36.50;;;;;;5078671;28;20047;-55
2022/05/09 10:35:55;;;;;;;12.55;2.60;;;27.10;37.70;;;;;;5081230;28;20501;-52
2022/05/09 10:38:28;;;;;;;8.50;2.70;;;26.80;36.40;;;;;;5084041;28;20113;-52
2022/05/09 10:41:04;;;;;;;8.52;2.53;;;26.80;36.60;;;;;;5082438;28;20500;-52
2022/05/09 10:44:19;;;;;;;9.73;3.15;;;27.30;37.20;;;;;;5074387;28;20045;-55
2022/05/09 10:46:57;;;;;;;9.27;3.20;;;27.20;36.20;;;;;;5039832;28;20040;-53
2022/05/09 10:49:43;;;;;;;9.93;2.47;;;27.30;36.30;;;;;;5063935;28;20071;-54
2022/05/09 10:52:27;;;;;;;12.60;8.35;;;27.00;36.90;;;;;;5083196;28;20051;-60
2022/05/09 10:55:02;;;;;;;7.35;2.67;;;27.10;37.20;;;;;;5082171;28;20109;-60
2022/05/09 10:57:36;;;;;;;9.57;2.88;;;26.90;36.80;;;;;;5085339;28;20376;-59
2022/05/09 11:00:18;;;;;;;8.27;3.22;;;26.90;37.10;;;;;;5085147;28;20419;-52
2022/05/09 11:02:56;;;;;;;7.80;2.75;;;27.00;36.30;;;;;;5099602;28;20058;-51
2022/05/09 11:05:25;;;;;;;10.00;2.90;;;27.00;36.50;;;;;;5072186;28;20056;-52
2022/05/09 11:08:17;;;;;;;9.57;2.80;;;27.00;36.60;;;;;;5063747;28;20048;-51
2022/05/09 11:10:48;;;;;;;7.82;2.35;;;27.00;37.50;;;;;;5077810;28;20052;-52
2022/05/09 11:13:22;;;;;;;7.97;2.63;;;27.40;37.90;;;;;;5081524;28;20056;-54
2022/05/09 11:15:48;;;;;;;6.20;2.35;;;27.80;37.40;;;;;;5070382;28;20241;-53
2022/05/09 11:18:41;;;;;;;7.72;2.67;;;27.60;37.20;;;;;;5061853;28;20206;-54
2022/05/09 11:21:25;;;;;;;8.30;2.45;;;27.60;36.60;;;;;;5079118;28;20059;-61
2022/05/09 11:24:06;;;;;;;6.60;2.47;;;28.10;37.80;;;;;;5083811;28;20495;-61
2022/05/09 11:26:39;;;;;;;11.68;4.15;;;28.20;36.70;;;;;;5053241;28;20063;-61
2022/05/09 11:29:35;;;;;;;8.93;2.80;;;27.80;36.20;;;;;;5078273;28;20052;-61
2022/05/09 11:32:04;;;;;;;10.65;2.83;;;28.00;37.30;;;;;;5064212;28;20048;-60
2022/05/09 11:34:59;;;;;;;12.18;4.43;;;28.00;37.80;;;;;;5062525;28;20892;-61
2022/05/09 11:37:56;;;;;;;10.13;2.65;;;28.00;37.50;;;;;;5073429;28;20596;-61
2022/05/09 11:41:01;;;;;;;25.30;22.52;;;28.10;37.00;;;;;;5064012;28;20052;-61
2022/05/09 11:43:32;;;;;;;37.38;33.63;;;27.90;37.10;;;;;;5077720;28;20044;-65
2022/05/09 11:46:08;;;;;;;32.13;28.85;;;28.20;38.10;;;;;;5080136;28;20551;-63
2022/05/09 11:49:02;;;;;;;8.77;3.72;;;28.20;38.00;;;;;;5080765;28;20119;-65
2022/05/09 11:51:41;;;;;;;16.45;12.57;;;28.20;36.40;;;;;;5063394;28;20055;-66
2022/05/09 11:54:12;;;;;;;13.85;9.15;;;28.10;37.70;;;;;;5067319;28;20048;-56
2022/05/09 11:56:43;;;;;;;9.98;4.00;;;28.60;36.40;;;;;;5062691;28;20059;-55
2022/05/09 11:59:21;;;;;;;12.20;7.90;;;28.20;36.00;;;;;;5082716;28;20052;-55
2022/05/09 12:02:03;;;;;;;10.90;7.22;;;28.50;36.40;;;;;;5081660;28;20688;-56
2022/05/09 12:04:35;;;;;;;24.10;20.20;;;28.80;36.60;;;;;;5085628;28;20040;-56
2022/05/09 12:07:23;;;;;;;15.18;8.23;;;28.50;36.40;;;;;;5083157;28;20036;-56
2022/05/09 12:10:11;;;;;;;18.27;13.98;;;28.40;35.60;;;;;;5085617;28;20719;-55
2022/05/09 12:12:38;;;;;;;35.63;32.10;;;28.50;37.50;;;;;;5086225;28;20048;-55
2022/05/09 12:15:07;;;;;;;24.52;20.35;;;28.50;36.70;;;;;;5086252;28;20660;-56
2022/05/09 12:17:38;;;;;;;8.20;4.05;;;28.70;36.60;;;;;;5082406;28;20063;-56
2022/05/09 12:20:08;;;;;;;8.07;3.20;;;28.90;36.30;;;;;;5079041;28;20051;-55
2022/05/09 12:22:44;;;;;;;8.30;4.43;;;28.60;36.00;;;;;;5086275;28;20056;-55
2022/05/09 12:25:38;;;;;;;7.97;2.70;;;28.70;36.70;;;;;;5083632;28;20834;-56
2022/05/09 12:28:19;;;;;;;10.32;4.70;;;28.50;35.90;;;;;;5076461;28;20178;-57
2022/05/09 12:30:59;;;;;;;22.50;17.73;;;28.60;35.80;;;;;;5085816;28;20052;-56
2022/05/09 12:33:37;;;;;;;8.10;3.60;;;28.40;35.50;;;;;;5084541;28;20748;-56
2022/05/09 12:36:30;;;;;;;12.73;8.63;;;28.70;36.80;;;;;;5084214;28;20186;-55
2022/05/09 12:39:18;;;;;;;8.52;2.88;;;28.40;36.40;;;;;;5079217;28;20052;-55
2022/05/09 12:41:49;;;;;;;11.88;6.07;;;28.70;35.80;;;;;;5083258;28;20156;-56
2022/05/09 12:44:19;;;;;;;7.97;3.30;;;28.70;35.40;;;;;;5084282;28;20766;-56
2022/05/09 12:46:52;;;;;;;11.88;2.78;;;28.80;35.30;;;;;;5085714;28;20451;-65
2022/05/09 12:49:35;;;;;;;7.25;3.00;;;28.90;35.70;;;;;;5081421;28;20445;-65
2022/05/09 12:52:02;;;;;;;8.35;3.65;;;29.00;35.10;;;;;;5085885;28;20377;-60
2022/05/09 12:54:30;;;;;;;10.65;3.50;;;28.60;35.30;;;;;;5086061;28;20920;-65
2022/05/09 12:57:03;;;;;;;14.23;12.20;;;28.90;35.10;;;;;;5068069;28;20406;-64
2022/05/09 12:59:47;;;;;;;9.77;6.05;;;28.90;34.80;;;;;;5083509;28;20083;-64
2022/05/09 13:02:25;;;;;;;9.32;4.70;;;28.90;33.10;;;;;;5085608;28;20211;-65
2022/05/09 13:04:52;;;;;;;8.40;3.03;;;28.80;35.20;;;;;;5084435;28;20090;-65
2022/05/09 13:07:19;;;;;;;10.65;5.43;;;28.80;35.40;;;;;;5068054;28;20724;-65
2022/05/09 13:09:51;;;;;;;9.48;4.18;;;29.40;35.20;;;;;;5053029;28;20712;-64
2022/05/09 13:12:47;;;;;;;14.80;5.13;;;29.50;34.10;;;;;;5065744;28;20078;-65